Terminal Aerodrome Forecast
Issued by NWS Louisville, KY

Home | Current Version | Previous Version | Text Only | Print | Product List | Glossary On
Versions: 1 2 3 4 5 6 7 8 9 10 11 12 13 14 15 16 17 18 19 20 21 22
000
FTUS43 KLMK 030900 AAB
TAFLEX
TAF AMD
KLEX 030936Z 0310/0406 11004KT P6SM SCT005 BKN015
     FM031200 18005KT 4SM BR BKN008
     FM031700 23007KT 5SM BR VCTS BKN015CB=

USA.gov is the U.S. government's official web portal to all federal, state and local government web resources and services.